sensor_id;sensor_type;location;lat;lon;timestamp;P1;durP1;ratioP1;P2;durP2;ratioP2
15082;SDS011;7640;53.116;6.878;2023-07-13T00:00:57;9.17;;;3.50;;
15082;SDS011;7640;53.116;6.878;2023-07-13T00:03:27;4.43;;;3.07;;
15082;SDS011;7640;53.116;6.878;2023-07-13T00:06:02;6.67;;;3.17;;
15082;SDS011;7640;53.116;6.878;2023-07-13T00:08:31;7.00;;;3.20;;
15082;SDS011;7640;53.116;6.878;2023-07-13T00:11:01;8.60;;;3.00;;
15082;SDS011;7640;53.116;6.878;2023-07-13T00:13:34;6.67;;;3.13;;
15082;SDS011;7640;53.116;6.878;2023-07-13T00:16:07;9.87;;;3.30;;
15082;SDS011;7640;53.116;6.878;2023-07-13T00:18:39;7.80;;;3.33;;
15082;SDS011;7640;53.116;6.878;2023-07-13T00:21:09;8.03;;;3.23;;
15082;SDS011;7640;53.116;6.878;2023-07-13T00:23:40;7.60;;;3.80;;
15082;SDS011;7640;53.116;6.878;2023-07-13T00:26:11;8.43;;;3.47;;
15082;SDS011;7640;53.116;6.878;2023-07-13T00:28:47;6.60;;;2.87;;
15082;SDS011;7640;53.116;6.878;2023-07-13T00:31:18;8.83;;;3.57;;
15082;SDS011;7640;53.116;6.878;2023-07-13T00:33:48;5.13;;;3.03;;
15082;SDS011;7640;53.116;6.878;2023-07-13T00:36:17;8.77;;;3.40;;
15082;SDS011;7640;53.116;6.878;2023-07-13T00:38:50;9.00;;;3.40;;
15082;SDS011;7640;53.116;6.878;2023-07-13T00:41:20;9.63;;;3.70;;
15082;SDS011;7640;53.116;6.878;2023-07-13T00:43:49;8.07;;;3.23;;
15082;SDS011;7640;53.116;6.878;2023-07-13T00:46:23;8.53;;;3.47;;
15082;SDS011;7640;53.116;6.878;2023-07-13T00:48:59;6.70;;;3.17;;
15082;SDS011;7640;53.116;6.878;2023-07-13T00:51:34;9.03;;;3.23;;
15082;SDS011;7640;53.116;6.878;2023-07-13T00:54:17;13.27;;;3.43;;
15082;SDS011;7640;53.116;6.878;2023-07-13T00:56:52;7.97;;;3.03;;
15082;SDS011;7640;53.116;6.878;2023-07-13T00:59:29;9.10;;;3.27;;
15082;SDS011;7640;53.116;6.878;2023-07-13T01:02:00;8.47;;;3.67;;
15082;SDS011;7640;53.116;6.878;2023-07-13T01:04:30;11.33;;;3.60;;
15082;SDS011;7640;53.116;6.878;2023-07-13T01:06:59;11.80;;;3.93;;
15082;SDS011;7640;53.116;6.878;2023-07-13T01:09:28;8.80;;;3.27;;
15082;SDS011;7640;53.116;6.878;2023-07-13T01:11:58;8.37;;;3.60;;
15082;SDS011;7640;53.116;6.878;2023-07-13T01:14:27;9.13;;;3.20;;
15082;SDS011;7640;53.116;6.878;2023-07-13T01:16:56;8.63;;;3.17;;
15082;SDS011;7640;53.116;6.878;2023-07-13T01:19:32;7.80;;;3.10;;
15082;SDS011;7640;53.116;6.878;2023-07-13T01:22:08;8.33;;;3.33;;
15082;SDS011;7640;53.116;6.878;2023-07-13T01:24:41;10.23;;;3.47;;
15082;SDS011;7640;53.116;6.878;2023-07-13T01:27:12;9.60;;;3.10;;
15082;SDS011;7640;53.116;6.878;2023-07-13T01:29:45;12.93;;;3.73;;
15082;SDS011;7640;53.116;6.878;2023-07-13T01:32:15;10.50;;;3.73;;
15082;SDS011;7640;53.116;6.878;2023-07-13T01:34:50;8.80;;;3.20;;
15082;SDS011;7640;53.116;6.878;2023-07-13T01:37:22;13.63;;;3.53;;
15082;SDS011;7640;53.116;6.878;2023-07-13T01:39:52;7.83;;;3.13;;
15082;SDS011;7640;53.116;6.878;2023-07-13T01:42:21;8.87;;;3.70;;
15082;SDS011;7640;53.116;6.878;2023-07-13T01:44:50;9.27;;;3.83;;
15082;SDS011;7640;53.116;6.878;2023-07-13T01:47:18;12.33;;;3.97;;
15082;SDS011;7640;53.116;6.878;2023-07-13T01:49:47;8.80;;;3.40;;
15082;SDS011;7640;53.116;6.878;2023-07-13T01:52:18;8.77;;;3.70;;
15082;SDS011;7640;53.116;6.878;2023-07-13T01:54:48;11.60;;;3.53;;
15082;SDS011;7640;53.116;6.878;2023-07-13T01:57:17;10.67;;;3.30;;
15082;SDS011;7640;53.116;6.878;2023-07-13T01:59:46;8.90;;;3.97;;
15082;SDS011;7640;53.116;6.878;2023-07-13T02:02:15;11.27;;;3.43;;
15082;SDS011;7640;53.116;6.878;2023-07-13T02:04:46;8.30;;;3.30;;
15082;SDS011;7640;53.116;6.878;2023-07-13T02:07:15;9.80;;;4.00;;
15082;SDS011;7640;53.116;6.878;2023-07-13T02:09:43;11.47;;;3.53;;
15082;SDS011;7640;53.116;6.878;2023-07-13T02:12:14;13.57;;;4.17;;
15082;SDS011;7640;53.116;6.878;2023-07-13T02:14:42;10.37;;;4.03;;
15082;SDS011;7640;53.116;6.878;2023-07-13T02:17:11;10.57;;;3.90;;
15082;SDS011;7640;53.116;6.878;2023-07-13T02:19:41;10.57;;;4.20;;
15082;SDS011;7640;53.116;6.878;2023-07-13T02:22:10;9.27;;;3.40;;
15082;SDS011;7640;53.116;6.878;2023-07-13T02:24:38;14.43;;;3.97;;
15082;SDS011;7640;53.116;6.878;2023-07-13T02:27:07;10.40;;;3.50;;
15082;SDS011;7640;53.116;6.878;2023-07-13T02:29:37;11.47;;;3.70;;
15082;SDS011;7640;53.116;6.878;2023-07-13T02:32:07;10.17;;;3.40;;
15082;SDS011;7640;53.116;6.878;2023-07-13T02:34:38;8.70;;;3.27;;
15082;SDS011;7640;53.116;6.878;2023-07-13T02:37:22;6.63;;;3.60;;
15082;SDS011;7640;53.116;6.878;2023-07-13T02:39:51;9.80;;;3.50;;
15082;SDS011;7640;53.116;6.878;2023-07-13T02:42:20;8.37;;;3.17;;
15082;SDS011;7640;53.116;6.878;2023-07-13T02:44:50;11.03;;;4.20;;
15082;SDS011;7640;53.116;6.878;2023-07-13T02:47:19;16.00;;;3.60;;
15082;SDS011;7640;53.116;6.878;2023-07-13T02:49:48;7.43;;;3.67;;
15082;SDS011;7640;53.116;6.878;2023-07-13T02:52:17;9.80;;;3.43;;
15082;SDS011;7640;53.116;6.878;2023-07-13T02:54:46;10.40;;;3.57;;
15082;SDS011;7640;53.116;6.878;2023-07-13T02:57:15;7.83;;;3.50;;
15082;SDS011;7640;53.116;6.878;2023-07-13T02:59:43;10.53;;;4.23;;
15082;SDS011;7640;53.116;6.878;2023-07-13T03:02:13;10.27;;;3.50;;
15082;SDS011;7640;53.116;6.878;2023-07-13T03:04:42;12.67;;;4.20;;
15082;SDS011;7640;53.116;6.878;2023-07-13T03:07:11;12.00;;;4.10;;
15082;SDS011;7640;53.116;6.878;2023-07-13T03:09:40;9.83;;;4.07;;
15082;SDS011;7640;53.116;6.878;2023-07-13T03:12:09;10.63;;;3.80;;
15082;SDS011;7640;53.116;6.878;2023-07-13T03:14:37;11.23;;;4.10;;
15082;SDS011;7640;53.116;6.878;2023-07-13T03:17:06;10.30;;;4.40;;
15082;SDS011;7640;53.116;6.878;2023-07-13T03:19:36;10.67;;;3.90;;
15082;SDS011;7640;53.116;6.878;2023-07-13T03:22:05;10.73;;;4.27;;
15082;SDS011;7640;53.116;6.878;2023-07-13T03:24:34;11.47;;;4.13;;
15082;SDS011;7640;53.116;6.878;2023-07-13T03:27:05;10.00;;;4.10;;
15082;SDS011;7640;53.116;6.878;2023-07-13T03:29:34;15.17;;;4.40;;
15082;SDS011;7640;53.116;6.878;2023-07-13T03:32:04;12.43;;;4.53;;
15082;SDS011;7640;53.116;6.878;2023-07-13T03:34:34;16.83;;;4.80;;
15082;SDS011;7640;53.116;6.878;2023-07-13T03:37:04;12.27;;;4.70;;
15082;SDS011;7640;53.116;6.878;2023-07-13T03:39:33;16.07;;;5.40;;
15082;SDS011;7640;53.116;6.878;2023-07-13T03:42:02;11.93;;;4.90;;
15082;SDS011;7640;53.116;6.878;2023-07-13T03:44:32;10.80;;;4.37;;
15082;SDS011;7640;53.116;6.878;2023-07-13T03:47:01;15.00;;;4.93;;
15082;SDS011;7640;53.116;6.878;2023-07-13T03:49:32;9.63;;;4.50;;
15082;SDS011;7640;53.116;6.878;2023-07-13T03:52:02;15.63;;;4.90;;
15082;SDS011;7640;53.116;6.878;2023-07-13T03:54:32;12.00;;;5.37;;
15082;SDS011;7640;53.116;6.878;2023-07-13T03:57:01;14.80;;;4.60;;
15082;SDS011;7640;53.116;6.878;2023-07-13T03:59:31;15.27;;;4.30;;
15082;SDS011;7640;53.116;6.878;2023-07-13T04:02:00;16.33;;;4.77;;
15082;SDS011;7640;53.116;6.878;2023-07-13T04:04:31;18.80;;;4.87;;
15082;SDS011;7640;53.116;6.878;2023-07-13T04:07:00;11.13;;;4.63;;
15082;SDS011;7640;53.116;6.878;2023-07-13T04:09:31;18.13;;;4.87;;
15082;SDS011;7640;53.116;6.878;2023-07-13T04:12:00;11.77;;;4.10;;
15082;SDS011;7640;53.116;6.878;2023-07-13T04:14:29;13.10;;;4.40;;
15082;SDS011;7640;53.116;6.878;2023-07-13T04:17:01;9.77;;;4.33;;
15082;SDS011;7640;53.116;6.878;2023-07-13T04:19:30;10.87;;;4.33;;
15082;SDS011;7640;53.116;6.878;2023-07-13T04:21:59;15.87;;;4.77;;
15082;SDS011;7640;53.116;6.878;2023-07-13T04:24:29;10.40;;;4.57;;
15082;SDS011;7640;53.116;6.878;2023-07-13T04:27:00;14.60;;;4.13;;
15082;SDS011;7640;53.116;6.878;2023-07-13T04:29:29;11.87;;;5.00;;
15082;SDS011;7640;53.116;6.878;2023-07-13T04:31:58;8.23;;;4.43;;
15082;SDS011;7640;53.116;6.878;2023-07-13T04:34:27;13.03;;;4.20;;
15082;SDS011;7640;53.116;6.878;2023-07-13T04:36:56;12.07;;;4.23;;
15082;SDS011;7640;53.116;6.878;2023-07-13T04:39:25;9.30;;;4.07;;
15082;SDS011;7640;53.116;6.878;2023-07-13T04:41:55;12.33;;;4.57;;
15082;SDS011;7640;53.116;6.878;2023-07-13T04:44:24;12.83;;;4.70;;
15082;SDS011;7640;53.116;6.878;2023-07-13T04:46:54;14.87;;;4.57;;
15082;SDS011;7640;53.116;6.878;2023-07-13T04:49:23;11.63;;;4.27;;
15082;SDS011;7640;53.116;6.878;2023-07-13T04:51:52;11.97;;;4.40;;
15082;SDS011;7640;53.116;6.878;2023-07-13T04:54:21;10.20;;;4.03;;
15082;SDS011;7640;53.116;6.878;2023-07-13T04:56:58;11.53;;;4.90;;
15082;SDS011;7640;53.116;6.878;2023-07-13T04:59:27;12.73;;;4.50;;
15082;SDS011;7640;53.116;6.878;2023-07-13T05:01:55;11.10;;;4.30;;
15082;SDS011;7640;53.116;6.878;2023-07-13T05:04:25;11.10;;;4.40;;
15082;SDS011;7640;53.116;6.878;2023-07-13T05:06:53;12.47;;;4.60;;
15082;SDS011;7640;53.116;6.878;2023-07-13T05:09:22;13.40;;;4.57;;
15082;SDS011;7640;53.116;6.878;2023-07-13T05:11:51;10.40;;;4.33;;
15082;SDS011;7640;53.116;6.878;2023-07-13T05:14:21;11.33;;;4.30;;
15082;SDS011;7640;53.116;6.878;2023-07-13T05:16:50;9.37;;;4.00;;
15082;SDS011;7640;53.116;6.878;2023-07-13T05:19:19;12.50;;;4.73;;
15082;SDS011;7640;53.116;6.878;2023-07-13T05:21:47;12.20;;;4.23;;
15082;SDS011;7640;53.116;6.878;2023-07-13T05:24:16;12.77;;;4.80;;
15082;SDS011;7640;53.116;6.878;2023-07-13T05:26:51;11.47;;;4.17;;
15082;SDS011;7640;53.116;6.878;2023-07-13T05:29:22;12.30;;;4.33;;
15082;SDS011;7640;53.116;6.878;2023-07-13T05:31:51;9.43;;;3.83;;
15082;SDS011;7640;53.116;6.878;2023-07-13T05:34:20;10.83;;;4.20;;
15082;SDS011;7640;53.116;6.878;2023-07-13T05:36:49;9.90;;;4.47;;
15082;SDS011;7640;53.116;6.878;2023-07-13T05:39:18;11.63;;;4.27;;
15082;SDS011;7640;53.116;6.878;2023-07-13T05:41:47;14.33;;;4.97;;
15082;SDS011;7640;53.116;6.878;2023-07-13T05:44:16;11.73;;;4.63;;
15082;SDS011;7640;53.116;6.878;2023-07-13T05:46:47;12.83;;;4.20;;
15082;SDS011;7640;53.116;6.878;2023-07-13T05:49:16;13.73;;;4.30;;
15082;SDS011;7640;53.116;6.878;2023-07-13T05:51:45;13.23;;;4.20;;
15082;SDS011;7640;53.116;6.878;2023-07-13T05:54:14;11.27;;;4.20;;
15082;SDS011;7640;53.116;6.878;2023-07-13T05:56:43;9.93;;;4.00;;
15082;SDS011;7640;53.116;6.878;2023-07-13T05:59:12;15.00;;;4.40;;
15082;SDS011;7640;53.116;6.878;2023-07-13T06:01:41;11.10;;;4.27;;
15082;SDS011;7640;53.116;6.878;2023-07-13T06:04:12;9.60;;;4.23;;
15082;SDS011;7640;53.116;6.878;2023-07-13T06:06:40;12.67;;;4.20;;
15082;SDS011;7640;53.116;6.878;2023-07-13T06:09:10;11.57;;;4.73;;
15082;SDS011;7640;53.116;6.878;2023-07-13T06:11:41;9.30;;;3.63;;
15082;SDS011;7640;53.116;6.878;2023-07-13T06:14:10;10.97;;;3.80;;
15082;SDS011;7640;53.116;6.878;2023-07-13T06:16:39;7.67;;;3.50;;
15082;SDS011;7640;53.116;6.878;2023-07-13T06:19:09;12.30;;;3.83;;
15082;SDS011;7640;53.116;6.878;2023-07-13T06:21:39;11.43;;;4.30;;
15082;SDS011;7640;53.116;6.878;2023-07-13T06:24:08;7.03;;;3.17;;
15082;SDS011;7640;53.116;6.878;2023-07-13T06:26:37;8.53;;;4.00;;
15082;SDS011;7640;53.116;6.878;2023-07-13T06:29:05;6.43;;;3.67;;
15082;SDS011;7640;53.116;6.878;2023-07-13T06:31:35;10.03;;;3.80;;
15082;SDS011;7640;53.116;6.878;2023-07-13T06:34:03;8.73;;;4.33;;
15082;SDS011;7640;53.116;6.878;2023-07-13T06:36:33;9.57;;;4.13;;
15082;SDS011;7640;53.116;6.878;2023-07-13T06:39:04;8.13;;;3.90;;
15082;SDS011;7640;53.116;6.878;2023-07-13T06:41:34;9.83;;;3.80;;
15082;SDS011;7640;53.116;6.878;2023-07-13T06:44:05;12.03;;;3.83;;
15082;SDS011;7640;53.116;6.878;2023-07-13T06:46:34;10.30;;;3.63;;
15082;SDS011;7640;53.116;6.878;2023-07-13T06:49:03;10.17;;;3.80;;
15082;SDS011;7640;53.116;6.878;2023-07-13T06:51:32;7.67;;;3.63;;
15082;SDS011;7640;53.116;6.878;2023-07-13T06:54:01;10.00;;;3.77;;
15082;SDS011;7640;53.116;6.878;2023-07-13T06:56:32;5.93;;;3.20;;
15082;SDS011;7640;53.116;6.878;2023-07-13T06:59:01;8.47;;;3.33;;
15082;SDS011;7640;53.116;6.878;2023-07-13T07:01:30;6.67;;;3.13;;
15082;SDS011;7640;53.116;6.878;2023-07-13T07:03:59;7.63;;;3.57;;
15082;SDS011;7640;53.116;6.878;2023-07-13T07:06:29;9.63;;;3.47;;
15082;SDS011;7640;53.116;6.878;2023-07-13T07:08:58;8.03;;;3.50;;
15082;SDS011;7640;53.116;6.878;2023-07-13T07:11:29;9.73;;;3.13;;
15082;SDS011;7640;53.116;6.878;2023-07-13T07:13:57;8.70;;;2.80;;
15082;SDS011;7640;53.116;6.878;2023-07-13T07:16:26;5.87;;;2.80;;
15082;SDS011;7640;53.116;6.878;2023-07-13T07:18:56;6.60;;;3.60;;
15082;SDS011;7640;53.116;6.878;2023-07-13T07:21:25;9.17;;;3.30;;
15082;SDS011;7640;53.116;6.878;2023-07-13T07:23:54;7.30;;;2.90;;
15082;SDS011;7640;53.116;6.878;2023-07-13T07:26:22;6.27;;;2.80;;
15082;SDS011;7640;53.116;6.878;2023-07-13T07:28:58;5.27;;;3.00;;
15082;SDS011;7640;53.116;6.878;2023-07-13T07:31:33;9.23;;;2.90;;
15082;SDS011;7640;53.116;6.878;2023-07-13T07:34:06;6.63;;;3.03;;
15082;SDS011;7640;53.116;6.878;2023-07-13T07:36:35;7.63;;;3.50;;
15082;SDS011;7640;53.116;6.878;2023-07-13T07:39:09;11.88;;;2.88;;
15082;SDS011;7640;53.116;6.878;2023-07-13T07:41:37;4.83;;;2.63;;
15082;SDS011;7640;53.116;6.878;2023-07-13T07:44:11;7.67;;;2.93;;
15082;SDS011;7640;53.116;6.878;2023-07-13T07:46:40;6.23;;;2.90;;
15082;SDS011;7640;53.116;6.878;2023-07-13T07:49:08;8.63;;;2.95;;
15082;SDS011;7640;53.116;6.878;2023-07-13T07:51:38;6.03;;;2.50;;
15082;SDS011;7640;53.116;6.878;2023-07-13T07:54:06;4.27;;;2.50;;
15082;SDS011;7640;53.116;6.878;2023-07-13T07:56:42;4.70;;;2.60;;
15082;SDS011;7640;53.116;6.878;2023-07-13T07:59:32;6.47;;;2.40;;
15082;SDS011;7640;53.116;6.878;2023-07-13T08:02:05;3.85;;;2.15;;
15082;SDS011;7640;53.116;6.878;2023-07-13T08:04:56;6.97;;;2.47;;
15082;SDS011;7640;53.116;6.878;2023-07-13T08:07:28;6.03;;;2.30;;
15082;SDS011;7640;53.116;6.878;2023-07-13T08:09:59;5.15;;;2.00;;
15082;SDS011;7640;53.116;6.878;2023-07-13T08:12:27;7.50;;;2.50;;
15082;SDS011;7640;53.116;6.878;2023-07-13T08:15:01;5.80;;;2.63;;
15082;SDS011;7640;53.116;6.878;2023-07-13T08:17:32;6.40;;;2.67;;
15082;SDS011;7640;53.116;6.878;2023-07-13T08:20:08;7.70;;;2.47;;
15082;SDS011;7640;53.116;6.878;2023-07-13T08:22:43;6.72;;;2.70;;
15082;SDS011;7640;53.116;6.878;2023-07-13T08:25:17;6.43;;;2.88;;
15082;SDS011;7640;53.116;6.878;2023-07-13T08:27:47;6.53;;;3.00;;
15082;SDS011;7640;53.116;6.878;2023-07-13T08:30:17;4.68;;;2.50;;
15082;SDS011;7640;53.116;6.878;2023-07-13T08:32:46;4.47;;;2.58;;
15082;SDS011;7640;53.116;6.878;2023-07-13T08:35:16;6.32;;;3.15;;
15082;SDS011;7640;53.116;6.878;2023-07-13T08:37:45;5.55;;;2.83;;
15082;SDS011;7640;53.116;6.878;2023-07-13T08:40:13;6.32;;;3.03;;
15082;SDS011;7640;53.116;6.878;2023-07-13T08:42:45;5.32;;;2.88;;
15082;SDS011;7640;53.116;6.878;2023-07-13T08:45:22;5.15;;;2.72;;
15082;SDS011;7640;53.116;6.878;2023-07-13T08:47:59;3.17;;;2.60;;
15082;SDS011;7640;53.116;6.878;2023-07-13T08:50:39;5.13;;;2.90;;
15082;SDS011;7640;53.116;6.878;2023-07-13T08:53:28;6.50;;;3.25;;
15082;SDS011;7640;53.116;6.878;2023-07-13T08:56:04;5.73;;;2.93;;
15082;SDS011;7640;53.116;6.878;2023-07-13T08:58:41;4.80;;;3.33;;
15082;SDS011;7640;53.116;6.878;2023-07-13T09:01:14;6.20;;;4.07;;
15082;SDS011;7640;53.116;6.878;2023-07-13T09:03:50;6.40;;;3.73;;
15082;SDS011;7640;53.116;6.878;2023-07-13T09:06:31;5.73;;;4.23;;
15082;SDS011;7640;53.116;6.878;2023-07-13T09:09:52;6.03;;;2.70;;
15082;SDS011;7640;53.116;6.878;2023-07-13T09:12:38;3.83;;;2.60;;
15082;SDS011;7640;53.116;6.878;2023-07-13T09:15:23;5.17;;;2.73;;
15082;SDS011;7640;53.116;6.878;2023-07-13T09:18:01;4.67;;;2.87;;
15082;SDS011;7640;53.116;6.878;2023-07-13T09:20:40;6.83;;;3.63;;
15082;SDS011;7640;53.116;6.878;2023-07-13T09:23:15;3.60;;;2.60;;
15082;SDS011;7640;53.116;6.878;2023-07-13T09:25:48;3.87;;;2.77;;
15082;SDS011;7640;53.116;6.878;2023-07-13T09:28:23;3.60;;;2.80;;
15082;SDS011;7640;53.116;6.878;2023-07-13T09:30:58;3.57;;;2.67;;
15082;SDS011;7640;53.116;6.878;2023-07-13T09:33:34;5.73;;;3.30;;
15082;SDS011;7640;53.116;6.878;2023-07-13T09:36:05;5.90;;;3.30;;
15082;SDS011;7640;53.116;6.878;2023-07-13T09:41:33;5.80;;;3.67;;
15082;SDS011;7640;53.116;6.878;2023-07-13T09:44:09;5.47;;;3.50;;
15082;SDS011;7640;53.116;6.878;2023-07-13T09:46:43;5.57;;;3.60;;
15082;SDS011;7640;53.116;6.878;2023-07-13T09:49:18;4.80;;;3.40;;
15082;SDS011;7640;53.116;6.878;2023-07-13T09:51:57;4.87;;;3.73;;
15082;SDS011;7640;53.116;6.878;2023-07-13T09:54:28;3.53;;;3.13;;
15082;SDS011;7640;53.116;6.878;2023-07-13T09:57:12;3.93;;;3.27;;
15082;SDS011;7640;53.116;6.878;2023-07-13T09:59:43;3.60;;;3.27;;
15082;SDS011;7640;53.116;6.878;2023-07-13T10:02:24;5.20;;;3.60;;
15082;SDS011;7640;53.116;6.878;2023-07-13T10:05:02;5.30;;;3.67;;
15082;SDS011;7640;53.116;6.878;2023-07-13T10:07:37;5.00;;;3.23;;
15082;SDS011;7640;53.116;6.878;2023-07-13T10:10:13;7.73;;;4.23;;
15082;SDS011;7640;53.116;6.878;2023-07-13T10:12:47;6.50;;;4.57;;
15082;SDS011;7640;53.116;6.878;2023-07-13T10:15:18;6.67;;;4.43;;
15082;SDS011;7640;53.116;6.878;2023-07-13T10:17:52;8.10;;;5.10;;
15082;SDS011;7640;53.116;6.878;2023-07-13T10:20:27;9.73;;;5.30;;
15082;SDS011;7640;53.116;6.878;2023-07-13T10:22:56;8.03;;;5.20;;
15082;SDS011;7640;53.116;6.878;2023-07-13T10:25:31;6.70;;;5.37;;
15082;SDS011;7640;53.116;6.878;2023-07-13T10:28:03;7.27;;;5.00;;
15082;SDS011;7640;53.116;6.878;2023-07-13T10:30:48;6.23;;;4.80;;
15082;SDS011;7640;53.116;6.878;2023-07-13T10:33:20;5.77;;;4.50;;
15082;SDS011;7640;53.116;6.878;2023-07-13T10:35:51;6.83;;;4.47;;
15082;SDS011;7640;53.116;6.878;2023-07-13T10:38:28;6.23;;;4.27;;
15082;SDS011;7640;53.116;6.878;2023-07-13T10:40:59;6.23;;;4.77;;
15082;SDS011;7640;53.116;6.878;2023-07-13T10:43:33;6.17;;;5.00;;
15082;SDS011;7640;53.116;6.878;2023-07-13T10:46:05;5.50;;;4.30;;
15082;SDS011;7640;53.116;6.878;2023-07-13T10:48:36;6.03;;;4.43;;
15082;SDS011;7640;53.116;6.878;2023-07-13T10:51:08;4.73;;;3.80;;
15082;SDS011;7640;53.116;6.878;2023-07-13T10:53:41;6.10;;;4.03;;
15082;SDS011;7640;53.116;6.878;2023-07-13T10:56:19;6.23;;;3.50;;
15082;SDS011;7640;53.116;6.878;2023-07-13T10:59:02;4.13;;;3.10;;
15082;SDS011;7640;53.116;6.878;2023-07-13T11:01:48;5.90;;;3.03;;
15082;SDS011;7640;53.116;6.878;2023-07-13T11:04:24;4.17;;;3.00;;
15082;SDS011;7640;53.116;6.878;2023-07-13T11:06:58;3.80;;;2.83;;
15082;SDS011;7640;53.116;6.878;2023-07-13T11:09:39;3.73;;;2.33;;
15082;SDS011;7640;53.116;6.878;2023-07-13T11:12:27;4.00;;;2.60;;
15082;SDS011;7640;53.116;6.878;2023-07-13T11:15:26;4.03;;;2.57;;
15082;SDS011;7640;53.116;6.878;2023-07-13T11:18:21;4.13;;;3.05;;
15082;SDS011;7640;53.116;6.878;2023-07-13T11:20:52;5.57;;;2.40;;
15082;SDS011;7640;53.116;6.878;2023-07-13T11:24:03;3.47;;;2.70;;
15082;SDS011;7640;53.116;6.878;2023-07-13T11:26:44;3.63;;;2.30;;
15082;SDS011;7640;53.116;6.878;2023-07-13T11:29:24;5.05;;;2.75;;
15082;SDS011;7640;53.116;6.878;2023-07-13T11:32:20;3.65;;;2.53;;
15082;SDS011;7640;53.116;6.878;2023-07-13T11:34:54;3.00;;;2.65;;
15082;SDS011;7640;53.116;6.878;2023-07-13T11:37:23;4.85;;;2.78;;
15082;SDS011;7640;53.116;6.878;2023-07-13T11:39:54;3.42;;;2.60;;
15082;SDS011;7640;53.116;6.878;2023-07-13T11:42:22;3.17;;;2.30;;
15082;SDS011;7640;53.116;6.878;2023-07-13T11:44:52;4.82;;;2.53;;
15082;SDS011;7640;53.116;6.878;2023-07-13T11:47:39;3.83;;;2.45;;
15082;SDS011;7640;53.116;6.878;2023-07-13T11:50:16;3.38;;;2.17;;
15082;SDS011;7640;53.116;6.878;2023-07-13T11:52:47;3.65;;;2.28;;
15082;SDS011;7640;53.116;6.878;2023-07-13T11:55:20;2.40;;;1.85;;
15082;SDS011;7640;53.116;6.878;2023-07-13T11:57:52;3.58;;;1.90;;
15082;SDS011;7640;53.116;6.878;2023-07-13T12:00:28;2.42;;;1.50;;
15082;SDS011;7640;53.116;6.878;2023-07-13T12:03:00;4.10;;;1.95;;
15082;SDS011;7640;53.116;6.878;2023-07-13T12:05:33;3.92;;;1.60;;
15082;SDS011;7640;53.116;6.878;2023-07-13T12:08:08;2.88;;;1.88;;
15082;SDS011;7640;53.116;6.878;2023-07-13T12:10:55;3.83;;;1.45;;
15082;SDS011;7640;53.116;6.878;2023-07-13T12:13:27;3.38;;;1.67;;
15082;SDS011;7640;53.116;6.878;2023-07-13T12:15:57;3.33;;;1.60;;
15082;SDS011;7640;53.116;6.878;2023-07-13T12:18:28;3.22;;;1.65;;
15082;SDS011;7640;53.116;6.878;2023-07-13T12:21:03;2.20;;;1.38;;
15082;SDS011;7640;53.116;6.878;2023-07-13T12:23:34;2.75;;;1.40;;
15082;SDS011;7640;53.116;6.878;2023-07-13T12:26:05;2.67;;;1.40;;
15082;SDS011;7640;53.116;6.878;2023-07-13T12:28:37;2.47;;;1.40;;
15082;SDS011;7640;53.116;6.878;2023-07-13T12:31:22;3.50;;;1.80;;
15082;SDS011;7640;53.116;6.878;2023-07-13T12:34:06;2.50;;;1.60;;
15082;SDS011;7640;53.116;6.878;2023-07-13T12:36:38;3.58;;;1.52;;
15082;SDS011;7640;53.116;6.878;2023-07-13T12:39:18;2.92;;;1.60;;
15082;SDS011;7640;53.116;6.878;2023-07-13T12:41:52;2.47;;;1.40;;
15082;SDS011;7640;53.116;6.878;2023-07-13T12:44:23;3.75;;;1.58;;
15082;SDS011;7640;53.116;6.878;2023-07-13T12:46:58;2.17;;;1.40;;
15082;SDS011;7640;53.116;6.878;2023-07-13T12:49:40;3.78;;;1.65;;
15082;SDS011;7640;53.116;6.878;2023-07-13T12:52:15;3.72;;;1.65;;
15082;SDS011;7640;53.116;6.878;2023-07-13T12:54:52;3.85;;;1.63;;
15082;SDS011;7640;53.116;6.878;2023-07-13T12:57:34;3.45;;;1.70;;
15082;SDS011;7640;53.116;6.878;2023-07-13T13:00:20;2.90;;;1.45;;
15082;SDS011;7640;53.116;6.878;2023-07-13T13:02:53;3.30;;;1.60;;
15082;SDS011;7640;53.116;6.878;2023-07-13T13:05:56;2.53;;;1.55;;
15082;SDS011;7640;53.116;6.878;2023-07-13T13:08:30;2.35;;;1.40;;
15082;SDS011;7640;53.116;6.878;2023-07-13T13:11:00;3.30;;;1.70;;
15082;SDS011;7640;53.116;6.878;2023-07-13T13:13:31;2.80;;;1.50;;
15082;SDS011;7640;53.116;6.878;2023-07-13T13:16:01;2.83;;;1.30;;
15082;SDS011;7640;53.116;6.878;2023-07-13T13:18:32;2.45;;;1.33;;
15082;SDS011;7640;53.116;6.878;2023-07-13T13:21:02;2.67;;;1.50;;
15082;SDS011;7640;53.116;6.878;2023-07-13T13:23:31;3.38;;;1.20;;
15082;SDS011;7640;53.116;6.878;2023-07-13T13:26:00;1.67;;;1.20;;
15082;SDS011;7640;53.116;6.878;2023-07-13T13:28:33;2.40;;;1.27;;
15082;SDS011;7640;53.116;6.878;2023-07-13T13:31:02;3.63;;;1.42;;
15082;SDS011;7640;53.116;6.878;2023-07-13T13:33:31;2.40;;;1.20;;
15082;SDS011;7640;53.116;6.878;2023-07-13T13:36:01;2.60;;;1.10;;
15082;SDS011;7640;53.116;6.878;2023-07-13T13:38:30;3.17;;;1.35;;
15082;SDS011;7640;53.116;6.878;2023-07-13T13:41:00;3.30;;;1.63;;
15082;SDS011;7640;53.116;6.878;2023-07-13T13:43:30;2.63;;;1.48;;
15082;SDS011;7640;53.116;6.878;2023-07-13T13:46:02;3.75;;;1.40;;
15082;SDS011;7640;53.116;6.878;2023-07-13T13:48:42;3.50;;;1.38;;
15082;SDS011;7640;53.116;6.878;2023-07-13T13:51:13;3.13;;;1.30;;
15082;SDS011;7640;53.116;6.878;2023-07-13T13:53:44;4.57;;;1.50;;
15082;SDS011;7640;53.116;6.878;2023-07-13T13:56:14;2.88;;;1.38;;
15082;SDS011;7640;53.116;6.878;2023-07-13T13:58:44;1.95;;;1.20;;
15082;SDS011;7640;53.116;6.878;2023-07-13T14:01:16;2.28;;;1.50;;
15082;SDS011;7640;53.116;6.878;2023-07-13T14:03:47;2.95;;;1.40;;
15082;SDS011;7640;53.116;6.878;2023-07-13T14:06:17;3.80;;;1.50;;
15082;SDS011;7640;53.116;6.878;2023-07-13T14:08:47;3.80;;;1.50;;
15082;SDS011;7640;53.116;6.878;2023-07-13T14:11:16;3.30;;;1.40;;
15082;SDS011;7640;53.116;6.878;2023-07-13T14:13:49;3.95;;;1.63;;
15082;SDS011;7640;53.116;6.878;2023-07-13T14:16:24;4.78;;;1.67;;
15082;SDS011;7640;53.116;6.878;2023-07-13T14:18:56;3.20;;;1.45;;
15082;SDS011;7640;53.116;6.878;2023-07-13T14:21:27;3.53;;;1.55;;
15082;SDS011;7640;53.116;6.878;2023-07-13T14:23:57;3.05;;;1.45;;
15082;SDS011;7640;53.116;6.878;2023-07-13T14:26:29;5.20;;;1.90;;
15082;SDS011;7640;53.116;6.878;2023-07-13T14:29:04;4.43;;;2.00;;
15082;SDS011;7640;53.116;6.878;2023-07-13T14:31:42;3.47;;;1.63;;
15082;SDS011;7640;53.116;6.878;2023-07-13T14:34:11;3.53;;;1.65;;
15082;SDS011;7640;53.116;6.878;2023-07-13T14:36:42;2.72;;;1.50;;
15082;SDS011;7640;53.116;6.878;2023-07-13T14:39:14;2.80;;;1.77;;
15082;SDS011;7640;53.116;6.878;2023-07-13T14:41:44;5.80;;;1.77;;
15082;SDS011;7640;53.116;6.878;2023-07-13T14:44:15;5.18;;;2.10;;
15082;SDS011;7640;53.116;6.878;2023-07-13T14:46:48;5.57;;;1.90;;
15082;SDS011;7640;53.116;6.878;2023-07-13T14:49:21;4.13;;;1.75;;
15082;SDS011;7640;53.116;6.878;2023-07-13T14:52:05;3.42;;;1.70;;
15082;SDS011;7640;53.116;6.878;2023-07-13T14:54:40;4.00;;;1.67;;
15082;SDS011;7640;53.116;6.878;2023-07-13T14:57:10;4.38;;;1.80;;
15082;SDS011;7640;53.116;6.878;2023-07-13T14:59:40;3.22;;;1.70;;
15082;SDS011;7640;53.116;6.878;2023-07-13T15:02:18;4.15;;;1.70;;
15082;SDS011;7640;53.116;6.878;2023-07-13T15:04:56;3.88;;;1.75;;
15082;SDS011;7640;53.116;6.878;2023-07-13T15:07:26;2.80;;;1.42;;
15082;SDS011;7640;53.116;6.878;2023-07-13T15:09:55;3.92;;;1.60;;
15082;SDS011;7640;53.116;6.878;2023-07-13T15:12:27;1.75;;;1.10;;
15082;SDS011;7640;53.116;6.878;2023-07-13T15:14:57;3.50;;;1.50;;
15082;SDS011;7640;53.116;6.878;2023-07-13T15:17:28;3.20;;;1.70;;
15082;SDS011;7640;53.116;6.878;2023-07-13T15:20:06;3.72;;;1.52;;
15082;SDS011;7640;53.116;6.878;2023-07-13T15:22:47;2.33;;;1.50;;
15082;SDS011;7640;53.116;6.878;2023-07-13T15:25:52;3.15;;;1.42;;
15082;SDS011;7640;53.116;6.878;2023-07-13T15:28:21;2.40;;;1.60;;
15082;SDS011;7640;53.116;6.878;2023-07-13T15:30:50;2.80;;;1.40;;
15082;SDS011;7640;53.116;6.878;2023-07-13T15:33:22;2.05;;;1.50;;